createdAt,value
2019-05-20T00:01:54.823Z,1.17
2019-05-20T00:04:23.398Z,2.40
2019-05-20T00:06:51.826Z,1.10
2019-05-20T00:09:20.217Z,0.57
2019-05-20T00:11:48.690Z,0.80
2019-05-20T00:14:17.086Z,0.80
2019-05-20T00:16:45.650Z,2.43
2019-05-20T00:19:14.204Z,0.80
2019-05-20T00:21:42.662Z,1.23
2019-05-20T00:24:11.264Z,2.47
2019-05-20T00:26:39.678Z,1.00
2019-05-20T00:29:08.066Z,3.53
2019-05-20T00:31:36.464Z,1.70
2019-05-20T00:34:04.883Z,1.20
2019-05-20T00:36:33.531Z,1.43
2019-05-20T00:39:18.576Z,0.80
2019-05-20T00:41:47.034Z,2.37
2019-05-20T00:44:15.814Z,1.70
2019-05-20T00:46:44.289Z,1.53
2019-05-20T00:49:12.708Z,1.10
2019-05-20T00:51:41.123Z,0.90
2019-05-20T00:54:09.590Z,1.03
2019-05-20T00:56:38.135Z,0.80
2019-05-20T00:59:06.934Z,1.33
2019-05-20T01:01:35.326Z,1.10
2019-05-20T01:04:03.782Z,1.73
2019-05-20T01:06:32.227Z,1.40
2019-05-20T01:09:00.627Z,1.10
2019-05-20T01:11:29.016Z,1.00
2019-05-20T01:13:57.448Z,1.90
2019-05-20T01:16:25.910Z,1.20
2019-05-20T01:18:54.299Z,1.10
2019-05-20T01:21:22.842Z,1.00
2019-05-20T01:23:51.255Z,1.30
2019-05-20T01:26:19.707Z,1.10
2019-05-20T01:28:48.106Z,1.87
2019-05-20T01:31:16.498Z,1.20
2019-05-20T01:33:45.074Z,2.13
2019-05-20T01:36:13.534Z,1.10
2019-05-20T01:38:42.049Z,1.30
2019-05-20T01:41:10.447Z,4.47
2019-05-20T01:43:38.924Z,2.87
2019-05-20T01:46:07.423Z,1.40
2019-05-20T01:48:35.830Z,1.43
2019-05-20T01:51:04.323Z,1.23
2019-05-20T01:53:32.810Z,1.87
2019-05-20T01:56:01.283Z,4.60
2019-05-20T01:58:29.743Z,1.13
2019-05-20T02:00:58.154Z,2.07
2019-05-20T02:03:31.922Z,1.30
2019-05-20T02:05:56.684Z,1.63
2019-05-20T02:08:25.181Z,1.70
2019-05-20T02:10:56.543Z,2.23
2019-05-20T02:13:25.475Z,2.00
2019-05-20T02:16:04.559Z,1.80
2019-05-20T02:18:33.062Z,2.33
2019-05-20T02:21:01.495Z,2.43
2019-05-20T02:23:29.890Z,2.40
2019-05-20T02:25:58.638Z,2.63
2019-05-20T02:28:27.055Z,2.33
2019-05-20T02:30:57.028Z,2.67
2019-05-20T02:33:25.751Z,2.47
2019-05-20T02:35:54.174Z,2.13
2019-05-20T02:38:22.551Z,2.20
2019-05-20T02:40:50.952Z,2.37
2019-05-20T02:43:19.356Z,2.70
2019-05-20T02:45:47.940Z,3.97
2019-05-20T02:48:16.621Z,2.80
2019-05-20T02:50:45.016Z,2.77
2019-05-20T02:53:13.404Z,2.60
2019-05-20T02:55:41.841Z,4.37
2019-05-20T02:58:10.409Z,3.10
2019-05-20T03:00:38.797Z,3.23
2019-05-20T03:03:07.494Z,3.47
2019-05-20T03:05:36.218Z,3.50
2019-05-20T03:08:04.867Z,3.50
2019-05-20T03:10:33.272Z,3.80
2019-05-20T03:13:01.668Z,3.77
2019-05-20T03:15:30.183Z,5.03
2019-05-20T03:17:58.742Z,4.20
2019-05-20T03:20:27.152Z,5.10
2019-05-20T03:22:55.543Z,4.70
2019-05-20T03:25:23.981Z,4.70
2019-05-20T03:27:52.384Z,4.90
2019-05-20T03:30:20.790Z,5.07
2019-05-20T03:32:49.338Z,4.60
2019-05-20T03:35:18.604Z,5.27
2019-05-20T03:37:47.029Z,5.40
2019-05-20T03:40:15.581Z,6.60
2019-05-20T03:42:43.985Z,5.30
2019-05-20T03:45:12.654Z,6.67
2019-05-20T03:47:41.121Z,5.60
2019-05-20T03:50:10.203Z,7.00
2019-05-20T03:52:38.609Z,7.30
2019-05-20T03:55:07.888Z,8.30
2019-05-20T03:57:36.265Z,8.37
2019-05-20T04:00:06.908Z,9.33
2019-05-20T04:02:35.378Z,8.23
2019-05-20T04:05:04.045Z,8.93
2019-05-20T04:07:33.335Z,9.77
2019-05-20T04:10:01.733Z,9.73
2019-05-20T04:12:30.171Z,11.17
2019-05-20T04:14:58.592Z,10.33
2019-05-20T04:17:26.983Z,12.30
2019-05-20T04:19:55.399Z,10.50
2019-05-20T04:22:23.799Z,12.60
2019-05-20T04:24:52.379Z,13.50
2019-05-20T04:27:20.780Z,11.87
2019-05-20T04:29:49.252Z,14.70
2019-05-20T04:32:17.743Z,11.13
2019-05-20T04:34:46.156Z,13.27
2019-05-20T04:37:14.563Z,12.47
2019-05-20T04:39:43.156Z,15.40
2019-05-20T04:42:11.561Z,14.37
2019-05-20T04:44:40.028Z,13.03
2019-05-20T04:47:08.518Z,12.93
2019-05-20T04:49:37.070Z,13.33
2019-05-20T04:52:05.510Z,13.27
2019-05-20T04:54:33.899Z,14.80
2019-05-20T04:57:02.451Z,13.63
2019-05-20T04:59:30.865Z,14.27
2019-05-20T05:01:59.480Z,12.40
2019-05-20T05:04:28.014Z,14.40
2019-05-20T05:06:56.421Z,13.43
2019-05-20T05:09:24.835Z,15.00
2019-05-20T05:11:53.323Z,12.37
2019-05-20T05:14:21.769Z,11.83
2019-05-20T05:16:50.203Z,12.23
2019-05-20T05:19:18.622Z,11.80
2019-05-20T05:21:47.142Z,11.30
2019-05-20T05:24:15.549Z,11.83
2019-05-20T05:26:47.312Z,12.10
2019-05-20T05:29:14.250Z,10.63
2019-05-20T05:31:42.689Z,10.60
2019-05-20T05:34:11.146Z,11.03
2019-05-20T05:36:39.937Z,11.33
2019-05-20T05:39:08.442Z,10.27
2019-05-20T05:41:36.842Z,9.83
2019-05-20T05:44:05.323Z,10.10
2019-05-20T05:46:33.730Z,9.43
2019-05-20T05:49:02.147Z,9.73
2019-05-20T05:51:30.535Z,10.10
2019-05-20T05:53:59.016Z,9.20
2019-05-20T05:56:27.426Z,9.00
2019-05-20T05:58:56.064Z,9.13
2019-05-20T06:01:24.476Z,9.00
2019-05-20T06:03:52.880Z,8.70
2019-05-20T06:06:21.285Z,9.13
2019-05-20T06:08:49.680Z,8.83
2019-05-20T06:11:18.105Z,9.80
2019-05-20T06:13:46.514Z,9.03
2019-05-20T06:16:15.070Z,9.57
2019-05-20T06:18:43.797Z,9.47
2019-05-20T06:21:12.192Z,8.93
2019-05-20T06:23:40.619Z,10.30
2019-05-20T06:26:09.114Z,8.23
2019-05-20T06:28:37.483Z,8.80
2019-05-20T06:31:05.970Z,8.60
2019-05-20T06:33:34.386Z,8.77
2019-05-20T06:36:02.947Z,8.00
2019-05-20T06:38:36.064Z,10.10
2019-05-20T06:41:06.175Z,8.03
2019-05-20T06:43:34.655Z,8.17
2019-05-20T06:46:03.068Z,8.73
2019-05-20T06:48:31.535Z,8.03
2019-05-20T06:51:00.041Z,8.80
2019-05-20T06:53:28.514Z,9.17
2019-05-20T06:55:56.934Z,7.47
2019-05-20T06:58:25.302Z,8.67
2019-05-20T07:00:53.867Z,7.77
2019-05-20T07:03:22.262Z,10.03
2019-05-20T07:05:50.667Z,8.53
2019-05-20T07:08:19.109Z,7.00
2019-05-20T07:10:47.572Z,7.80
2019-05-20T07:13:16.443Z,9.30
2019-05-20T07:15:44.951Z,7.87
2019-05-20T07:18:13.395Z,9.60
2019-05-20T07:20:41.919Z,8.83
2019-05-20T07:23:10.318Z,10.13
2019-05-20T07:25:38.735Z,9.93
2019-05-20T07:28:07.214Z,9.83
2019-05-20T07:30:35.637Z,9.20
2019-05-20T07:33:04.112Z,8.50
2019-05-20T07:35:32.596Z,11.53
2019-05-20T07:38:01.001Z,9.17
2019-05-20T07:40:30.929Z,9.93
2019-05-20T07:42:59.351Z,11.13
2019-05-20T07:45:29.889Z,9.83
2019-05-20T07:47:58.492Z,8.80
2019-05-20T07:50:28.828Z,10.10
2019-05-20T07:53:00.456Z,11.63
2019-05-20T07:55:30.266Z,10.20
2019-05-20T07:58:01.763Z,9.97
2019-05-20T08:00:30.171Z,10.80
2019-05-20T08:02:58.676Z,13.63
2019-05-20T08:05:27.138Z,10.63
2019-05-20T08:07:55.650Z,12.03
2019-05-20T08:10:24.126Z,13.47
2019-05-20T08:12:52.526Z,12.67
2019-05-20T08:15:20.958Z,13.90
2019-05-20T08:17:49.350Z,14.57
2019-05-20T08:20:18.700Z,13.47
2019-05-20T08:22:47.121Z,16.07
2019-05-20T08:25:15.755Z,15.03
2019-05-20T08:27:44.384Z,15.63
2019-05-20T08:30:14.249Z,15.00
2019-05-20T08:32:43.115Z,16.27
2019-05-20T08:35:11.953Z,16.20
2019-05-20T08:37:45.754Z,17.13
2019-05-20T08:40:11.165Z,18.30
2019-05-20T08:42:39.618Z,16.13
2019-05-20T08:45:09.208Z,15.03
2019-05-20T08:47:37.616Z,18.07
2019-05-20T08:50:12.624Z,17.20
2019-05-20T08:52:37.958Z,16.67
2019-05-20T08:55:06.652Z,17.43
2019-05-20T08:57:35.085Z,19.03
2019-05-20T09:00:05.064Z,21.60
2019-05-20T09:02:33.551Z,16.57
2019-05-20T09:05:02.301Z,19.83
2019-05-20T09:07:30.935Z,17.10
2019-05-20T09:09:59.344Z,17.03
2019-05-20T09:12:27.829Z,15.30
2019-05-20T09:14:56.482Z,16.93
2019-05-20T09:17:25.091Z,15.27
2019-05-20T09:19:53.546Z,17.70
2019-05-20T09:22:22.032Z,14.93
2019-05-20T09:24:50.908Z,16.10
2019-05-20T09:27:19.581Z,15.90
2019-05-20T09:29:47.995Z,15.93
2019-05-20T09:32:16.655Z,16.57
2019-05-20T09:34:45.491Z,19.60
2019-05-20T09:37:13.906Z,19.83
2019-05-20T09:39:42.306Z,22.10
2019-05-20T09:42:10.755Z,19.90
2019-05-20T09:44:39.316Z,23.33
2019-05-20T09:47:07.707Z,22.57
2019-05-20T09:49:36.144Z,21.27
2019-05-20T09:52:04.683Z,23.37
2019-05-20T09:54:33.127Z,17.33
2019-05-20T09:57:01.570Z,19.50
2019-05-20T09:59:42.707Z,16.47
2019-05-20T10:02:00.127Z,15.93
2019-05-20T10:04:28.805Z,17.73
2019-05-20T10:06:57.286Z,16.40
2019-05-20T10:09:25.687Z,16.20
2019-05-20T10:11:54.102Z,13.77
2019-05-20T10:14:22.521Z,19.60
2019-05-20T10:16:50.992Z,16.40
2019-05-20T10:19:19.408Z,13.80
2019-05-20T10:21:47.820Z,17.47
2019-05-20T10:24:16.214Z,13.77
2019-05-20T10:26:44.714Z,14.20
2019-05-20T10:29:13.125Z,13.33
2019-05-20T10:31:41.539Z,16.07
2019-05-20T10:34:10.020Z,12.73
2019-05-20T10:36:38.446Z,14.00
2019-05-20T10:39:08.275Z,14.67
2019-05-20T10:41:37.242Z,15.10
2019-05-20T10:44:05.678Z,15.73
2019-05-20T10:46:34.090Z,14.97
2019-05-20T10:49:02.674Z,15.90
2019-05-20T10:51:31.224Z,18.67
2019-05-20T10:53:59.635Z,15.07
2019-05-20T10:56:28.087Z,14.93
2019-05-20T10:58:56.626Z,19.67
2019-05-20T11:01:25.048Z,20.47
2019-05-20T11:03:53.447Z,19.10
2019-05-20T11:06:21.941Z,16.83
2019-05-20T11:08:50.343Z,20.33
2019-05-20T11:11:18.743Z,19.27
2019-05-20T11:13:48.819Z,17.13
2019-05-20T11:16:18.440Z,17.33
2019-05-20T11:18:47.077Z,17.90
2019-05-20T11:21:15.611Z,16.37
2019-05-20T11:23:44.374Z,16.53
2019-05-20T11:26:12.768Z,16.20
2019-05-20T11:28:41.276Z,17.43
2019-05-20T11:31:09.667Z,20.50
2019-05-20T11:33:38.083Z,20.83
2019-05-20T11:36:06.496Z,21.93
2019-05-20T11:38:35.171Z,22.63
2019-05-20T11:41:03.571Z,19.07
2019-05-20T11:43:32.055Z,23.60
2019-05-20T11:46:00.624Z,22.53
2019-05-20T11:48:29.111Z,23.60
2019-05-20T11:50:57.509Z,24.20
2019-05-20T11:53:26.108Z,23.80
2019-05-20T11:55:54.662Z,21.90
2019-05-20T11:58:23.058Z,24.07
2019-05-20T12:00:51.482Z,21.67
2019-05-20T12:03:19.882Z,23.87
2019-05-20T12:05:48.406Z,24.53
2019-05-20T12:08:17.102Z,25.33
2019-05-20T12:10:45.502Z,25.93
2019-05-20T12:13:13.936Z,23.80
2019-05-20T12:15:42.472Z,22.37
2019-05-20T12:18:10.894Z,30.23
2019-05-20T12:20:39.579Z,24.63
2019-05-20T12:23:08.012Z,27.97
2019-05-20T12:25:36.482Z,27.10
2019-05-20T12:28:04.877Z,26.23
2019-05-20T12:30:33.312Z,28.23
2019-05-20T12:33:17.811Z,28.00
2019-05-20T12:35:31.900Z,31.20
2019-05-20T12:38:00.305Z,32.90
2019-05-20T12:40:28.699Z,28.40
2019-05-20T12:42:57.123Z,32.03
2019-05-20T12:45:26.088Z,31.17
2019-05-20T12:47:54.528Z,26.97
2019-05-20T12:50:24.091Z,29.63
2019-05-20T12:52:52.490Z,30.80
2019-05-20T12:55:20.903Z,28.80
2019-05-20T12:57:49.309Z,24.97
2019-05-20T13:00:19.670Z,24.20
2019-05-20T13:02:48.129Z,23.90
2019-05-20T13:05:16.893Z,24.77
2019-05-20T13:07:45.321Z,23.63
2019-05-20T13:10:29.125Z,24.30
2019-05-20T13:12:44.393Z,23.13
2019-05-20T13:15:13.041Z,24.87
2019-05-20T13:17:44.902Z,25.23
2019-05-20T13:20:11.846Z,23.13
2019-05-20T13:22:40.348Z,23.63
2019-05-20T13:25:09.471Z,22.10
2019-05-20T13:27:37.988Z,27.20
2019-05-20T13:30:10.240Z,23.87
2019-05-20T13:32:38.631Z,24.50
2019-05-20T13:35:07.789Z,25.23
2019-05-20T13:37:36.801Z,27.60
2019-05-20T13:40:06.832Z,28.23
2019-05-20T13:42:35.420Z,31.47
2019-05-20T13:45:05.530Z,31.97
2019-05-20T13:47:34.054Z,30.87
2019-05-20T13:50:03.042Z,29.97
2019-05-20T13:52:31.492Z,33.63
2019-05-20T13:54:59.895Z,32.43
2019-05-20T13:57:28.609Z,33.43
2019-05-20T13:59:57.415Z,36.20
2019-05-20T14:02:25.816Z,34.07
2019-05-20T14:04:54.263Z,35.40
2019-05-20T14:07:22.786Z,35.00
2019-05-20T14:09:51.259Z,36.10
2019-05-20T14:12:19.726Z,33.70
2019-05-20T14:14:48.146Z,32.83
2019-05-20T14:17:16.594Z,35.70
2019-05-20T14:19:45.307Z,35.27
2019-05-20T14:22:13.718Z,33.40
2019-05-20T14:24:42.148Z,36.27
2019-05-20T14:27:10.614Z,31.17
2019-05-20T14:29:39.091Z,36.47
2019-05-20T14:32:07.634Z,33.97
2019-05-20T14:34:44.211Z,34.53
2019-05-20T14:37:12.911Z,33.73
2019-05-20T14:39:41.387Z,32.83
2019-05-20T14:42:09.874Z,33.37
2019-05-20T14:44:38.283Z,34.53
2019-05-20T14:47:06.689Z,35.93
2019-05-20T14:49:35.157Z,32.30
2019-05-20T14:52:03.724Z,32.03
2019-05-20T14:54:32.159Z,32.47
2019-05-20T14:57:00.854Z,34.33
2019-05-20T14:59:29.296Z,41.03
2019-05-20T15:01:58.035Z,37.93
2019-05-20T15:04:26.445Z,37.23
2019-05-20T15:06:54.838Z,35.17
2019-05-20T15:09:23.273Z,33.17
2019-05-20T15:11:51.721Z,37.37
2019-05-20T15:14:20.150Z,34.60
2019-05-20T15:16:48.666Z,33.10
2019-05-20T15:19:17.096Z,35.83
2019-05-20T15:21:45.533Z,38.90
2019-05-20T15:24:14.075Z,36.37
2019-05-20T15:26:42.780Z,36.47
2019-05-20T15:29:27.041Z,35.00
2019-05-20T15:31:41.511Z,36.40
2019-05-20T15:34:09.935Z,33.00
2019-05-20T15:36:38.370Z,38.07
2019-05-20T15:39:07.639Z,32.27
2019-05-20T15:41:36.279Z,37.40
2019-05-20T15:44:04.786Z,37.23
2019-05-20T15:46:33.209Z,34.80
2019-05-20T15:49:01.620Z,34.50
2019-05-20T15:51:30.030Z,30.50
2019-05-20T15:53:58.456Z,32.43
2019-05-20T15:56:26.860Z,31.67
2019-05-20T15:58:55.272Z,28.47
2019-05-20T16:01:23.683Z,30.77
2019-05-20T16:03:52.101Z,30.73
2019-05-20T16:06:20.867Z,31.40
2019-05-20T16:08:49.279Z,34.47
2019-05-20T16:11:17.847Z,30.33
2019-05-20T16:13:46.270Z,30.67
2019-05-20T16:16:14.845Z,26.23
2019-05-20T16:18:43.257Z,24.00
2019-05-20T16:21:11.659Z,23.20
2019-05-20T16:23:40.247Z,21.37
2019-05-20T16:26:09.507Z,19.67
2019-05-20T16:28:42.554Z,21.53
2019-05-20T16:31:08.104Z,19.93
2019-05-20T16:33:36.502Z,22.93
2019-05-20T16:36:05.019Z,21.37
2019-05-20T16:38:33.435Z,21.97
2019-05-20T16:41:01.931Z,23.57
2019-05-20T16:43:30.326Z,21.73
2019-05-20T16:45:58.759Z,24.30
2019-05-20T16:48:27.175Z,25.10
2019-05-20T16:50:55.585Z,24.73
2019-05-20T16:53:25.096Z,25.40
2019-05-20T16:55:53.618Z,27.67
2019-05-20T16:58:22.375Z,29.03
2019-05-20T17:00:50.793Z,26.63
2019-05-20T17:03:19.194Z,29.70
2019-05-20T17:05:47.699Z,26.57
2019-05-20T17:08:16.227Z,34.87
2019-05-20T17:10:44.680Z,33.97
2019-05-20T17:13:13.158Z,34.20
2019-05-20T17:15:41.719Z,37.03
2019-05-20T17:18:10.235Z,37.37
2019-05-20T17:20:39.109Z,40.27
2019-05-20T17:23:07.603Z,40.80
2019-05-20T17:25:37.144Z,38.73
2019-05-20T17:28:05.623Z,44.80
2019-05-20T17:30:44.870Z,41.97
2019-05-20T17:33:04.165Z,40.03
2019-05-20T17:35:32.832Z,44.07
2019-05-20T17:38:01.249Z,46.07
2019-05-20T17:40:30.326Z,48.00
2019-05-20T17:42:58.911Z,49.77
2019-05-20T17:45:27.331Z,54.50
2019-05-20T17:47:55.747Z,49.20
2019-05-20T17:50:24.167Z,54.60
2019-05-20T17:52:52.574Z,55.70
2019-05-20T17:55:21.350Z,59.33
2019-05-20T17:57:49.894Z,60.27
2019-05-20T18:00:20.388Z,53.73
2019-05-20T18:02:48.946Z,55.50
2019-05-20T18:05:17.420Z,55.47
2019-05-20T18:07:45.851Z,61.60
2019-05-20T18:10:15.819Z,60.63
2019-05-20T18:12:44.602Z,64.00
2019-05-20T18:15:13.857Z,66.10
2019-05-20T18:17:42.383Z,69.03
2019-05-20T18:20:10.979Z,69.87
2019-05-20T18:22:39.434Z,68.30
2019-05-20T18:25:08.291Z,71.13
2019-05-20T18:27:36.708Z,76.33
2019-05-20T18:30:06.913Z,75.80
2019-05-20T18:32:38.324Z,74.67
2019-05-20T18:35:06.015Z,82.50
2019-05-20T18:37:34.475Z,77.03
2019-05-20T18:40:13.531Z,76.00
2019-05-20T18:42:33.239Z,77.90
2019-05-20T18:45:01.654Z,86.30
2019-05-20T18:47:30.059Z,85.30
2019-05-20T18:49:58.549Z,83.33
2019-05-20T18:52:27.623Z,71.73
2019-05-20T18:54:56.040Z,79.70
2019-05-20T18:57:24.506Z,82.87
2019-05-20T18:59:52.923Z,91.03
2019-05-20T19:02:21.322Z,83.77
2019-05-20T19:04:49.804Z,89.07
2019-05-20T19:07:18.217Z,81.27
2019-05-20T19:09:46.643Z,83.47
2019-05-20T19:12:15.242Z,83.43
2019-05-20T19:14:43.659Z,80.20
2019-05-20T19:17:12.151Z,81.30
2019-05-20T19:19:40.655Z,78.03
2019-05-20T19:22:09.253Z,76.63
2019-05-20T19:24:37.654Z,78.27
2019-05-20T19:27:06.217Z,79.37
2019-05-20T19:29:34.650Z,73.30
2019-05-20T19:32:03.882Z,70.30
2019-05-20T19:34:32.399Z,81.67
2019-05-20T19:37:00.823Z,75.77
2019-05-20T19:39:29.259Z,69.50
2019-05-20T19:41:57.838Z,72.40
2019-05-20T19:44:26.726Z,67.83
2019-05-20T19:46:55.492Z,69.33
2019-05-20T19:49:23.883Z,79.43
2019-05-20T19:51:52.295Z,77.07
2019-05-20T19:54:20.872Z,75.83
2019-05-20T19:56:49.304Z,74.33
2019-05-20T19:59:17.766Z,78.07
2019-05-20T20:01:46.182Z,81.70
2019-05-20T20:04:14.655Z,85.17
2019-05-20T20:06:43.168Z,85.80
2019-05-20T20:09:11.651Z,86.97
2019-05-20T20:11:40.056Z,93.80
2019-05-20T20:14:08.598Z,97.90
2019-05-20T20:16:37.039Z,92.00
2019-05-20T20:19:05.447Z,88.63
2019-05-20T20:21:33.870Z,81.90
2019-05-20T20:24:02.287Z,85.50
2019-05-20T20:26:30.768Z,80.37
2019-05-20T20:28:59.364Z,81.87
2019-05-20T20:31:27.798Z,76.17
2019-05-20T20:33:56.273Z,84.03
2019-05-20T20:36:24.663Z,76.53
2019-05-20T20:38:53.099Z,78.40
2019-05-20T20:41:21.698Z,82.27
2019-05-20T20:43:50.207Z,75.40
2019-05-20T20:46:18.618Z,80.73
2019-05-20T20:48:47.015Z,90.33
2019-05-20T20:51:15.695Z,83.83
2019-05-20T20:53:44.094Z,81.13
2019-05-20T20:56:24.659Z,85.70
2019-05-20T20:58:42.633Z,87.57
2019-05-20T21:01:11.034Z,90.53
2019-05-20T21:03:39.589Z,88.77
2019-05-20T21:06:08.009Z,83.27
2019-05-20T21:08:36.422Z,89.07
2019-05-20T21:11:05.074Z,84.33
2019-05-20T21:13:33.480Z,95.20
2019-05-20T21:16:01.888Z,92.60
2019-05-20T21:18:30.306Z,89.80
2019-05-20T21:20:58.963Z,91.50
2019-05-20T21:23:27.731Z,88.63
2019-05-20T21:25:56.156Z,93.63
2019-05-20T21:28:24.654Z,100.73
2019-05-20T21:30:53.242Z,92.40
2019-05-20T21:33:21.687Z,100.17
2019-05-20T21:35:50.130Z,100.07
2019-05-20T21:38:18.566Z,96.57
2019-05-20T21:40:47.076Z,111.80
2019-05-20T21:43:15.507Z,110.57
2019-05-20T21:45:44.144Z,104.47
2019-05-20T21:48:12.592Z,107.10
2019-05-20T21:50:41.002Z,116.23
2019-05-20T21:53:09.418Z,111.70
2019-05-20T21:55:37.886Z,107.90
2019-05-20T21:58:06.397Z,98.20
2019-05-20T22:00:42.278Z,95.07
2019-05-20T22:03:23.630Z,102.83
2019-05-20T22:05:40.860Z,99.20
2019-05-20T22:08:09.301Z,103.67
2019-05-20T22:10:37.722Z,107.77
2019-05-20T22:13:06.146Z,106.37
2019-05-20T22:15:34.547Z,112.87
2019-05-20T22:18:02.958Z,100.23
2019-05-20T22:20:31.366Z,105.07
2019-05-20T22:23:16.281Z,109.53
2019-05-20T22:25:46.701Z,104.27
2019-05-20T22:28:15.234Z,102.83
2019-05-20T22:30:43.654Z,90.87
2019-05-20T22:33:12.322Z,91.87
2019-05-20T22:35:40.765Z,96.50
2019-05-20T22:38:09.373Z,101.57
2019-05-20T22:40:37.801Z,90.40
2019-05-20T22:43:06.428Z,91.50
2019-05-20T22:45:34.971Z,90.23
2019-05-20T22:48:03.406Z,82.30
2019-05-20T22:50:31.807Z,89.43
2019-05-20T22:53:00.231Z,89.90
2019-05-20T22:55:28.682Z,85.20
2019-05-20T22:57:57.106Z,83.60
2019-05-20T23:00:25.520Z,92.10
2019-05-20T23:02:53.930Z,86.70
2019-05-20T23:05:22.343Z,85.77
2019-05-20T23:07:50.811Z,93.47
2019-05-20T23:10:19.290Z,90.27
2019-05-20T23:12:47.756Z,98.57
2019-05-20T23:15:16.290Z,89.40
2019-05-20T23:17:44.690Z,89.07
2019-05-20T23:20:13.344Z,92.53
2019-05-20T23:22:41.739Z,90.53
2019-05-20T23:25:10.322Z,82.47
2019-05-20T23:27:38.820Z,79.57
2019-05-20T23:30:08.226Z,78.53
2019-05-20T23:32:36.637Z,72.73
2019-05-20T23:35:06.579Z,82.67
2019-05-20T23:37:35.067Z,76.47
2019-05-20T23:40:05.107Z,67.87
2019-05-20T23:42:33.603Z,61.67
2019-05-20T23:45:02.082Z,54.43
2019-05-20T23:47:30.539Z,46.50
2019-05-20T23:49:58.958Z,45.07
2019-05-20T23:52:27.362Z,42.50
2019-05-20T23:54:56.083Z,45.27
2019-05-20T23:57:24.562Z,45.07
2019-05-20T23:59:53.323Z,47.17
